Time;durP1;ratioP1;P1;durP2;ratioP2;P2;SDS_P1;SDS_P2;PMS_P1;PMS_P2;Temp;Humidity;BMP_temperature;BMP_pressure;BME280_temperature;BME280_humidity;BME280_pressure;Samples;Min_cycle;Max_cycle;Signal;HPM_P1;HPM_P2
2022/05/03 00:01:43;;;;;;;10.85;6.20;;;;;;;;;;6231298;23;20207;-91
2022/05/03 00:04:54;;;;;;;10.57;6.00;;;;;;;;;;6231155;23;20243;-91
2022/05/03 00:08:04;;;;;;;12.68;5.63;;;;;;;;;;6231446;23;20171;-91
2022/05/03 00:11:10;;;;;;;9.52;5.85;;;;;;;;;;6230877;23;20155;-91
2022/05/03 00:14:18;;;;;;;11.50;6.25;;;;;;;;;;6230488;23;20163;-91
2022/05/03 00:17:24;;;;;;;9.75;5.57;;;;;;;;;;6229590;23;20190;-91
2022/05/03 00:20:31;;;;;;;13.02;6.47;;;;;;;;;;6231233;23;20167;-91
2022/05/03 00:23:37;;;;;;;11.55;6.15;;;;;;;;;;6230406;23;20163;-91
2022/05/03 00:26:42;;;;;;;12.63;6.15;;;;;;;;;;6231693;23;20170;-90
2022/05/03 00:29:47;;;;;;;17.23;5.72;;;;;;;;;;6230397;23;20171;-89
2022/05/03 00:32:54;;;;;;;13.48;6.03;;;;;;;;;;6230815;23;20243;-90
2022/05/03 00:36:00;;;;;;;11.25;6.30;;;;;;;;;;6231550;23;20199;-89
2022/05/03 00:39:05;;;;;;;11.10;5.82;;;;;;;;;;6231844;23;20167;-88
2022/05/03 00:42:16;;;;;;;11.32;5.63;;;;;;;;;;6231859;23;20171;-89
2022/05/03 00:45:25;;;;;;;10.27;5.55;;;;;;;;;;6230302;23;20268;-90
2022/05/03 00:48:45;;;;;;;10.63;5.45;;;;;;;;;;6230630;23;20287;-89
2022/05/03 00:52:00;;;;;;;10.13;5.82;;;;;;;;;;6229664;23;20195;-89
2022/05/03 00:55:24;;;;;;;14.88;6.65;;;;;;;;;;6230582;23;20179;-89
2022/05/03 00:58:39;;;;;;;10.00;5.77;;;;;;;;;;6230989;23;20238;-90
2022/05/03 01:01:50;;;;;;;9.40;5.97;;;;;;;;;;6229952;23;20179;-89
2022/05/03 01:04:59;;;;;;;9.77;5.73;;;;;;;;;;6231470;23;20169;-89
2022/05/03 01:08:07;;;;;;;12.50;6.13;;;;;;;;;;6232242;23;20167;-90
2022/05/03 01:11:17;;;;;;;10.02;6.05;;;;;;;;;;6231510;23;20163;-91
2022/05/03 01:14:33;;;;;;;11.20;6.00;;;;;;;;;;6233092;23;20162;-90
2022/05/03 01:17:43;;;;;;;9.60;5.70;;;;;;;;;;6230875;23;20263;-89
2022/05/03 01:20:53;;;;;;;10.07;5.85;;;;;;;;;;6230593;23;20164;-90
2022/05/03 01:24:10;;;;;;;9.75;5.68;;;;;;;;;;6230585;23;20175;-89
2022/05/03 01:27:35;;;;;;;10.23;6.10;;;;;;;;;;6230852;23;20263;-89
2022/05/03 01:30:47;;;;;;;12.70;5.97;;;;;;;;;;6229415;23;20171;-90
2022/05/03 01:33:55;;;;;;;8.02;5.65;;;;;;;;;;6229269;23;20179;-89
2022/05/03 01:37:13;;;;;;;10.27;6.05;;;;;;;;;;6229541;23;20191;-92
2022/05/03 01:40:25;;;;;;;13.93;5.73;;;;;;;;;;6230515;23;20168;-91
2022/05/03 01:43:38;;;;;;;11.20;5.57;;;;;;;;;;6230450;23;20171;-91
2022/05/03 01:46:47;;;;;;;12.33;5.07;;;;;;;;;;6230584;23;20170;-92
2022/05/03 01:53:28;;;;;;;8.70;5.93;;;;;;;;;;6230969;23;20267;-91
2022/05/03 01:56:38;;;;;;;12.10;5.60;;;;;;;;;;6230806;23;20194;-89
2022/05/03 01:59:51;;;;;;;12.43;6.10;;;;;;;;;;6231045;23;20191;-90
2022/05/03 02:03:01;;;;;;;10.23;6.33;;;;;;;;;;6230965;23;20227;-90
2022/05/03 02:06:10;;;;;;;14.23;6.70;;;;;;;;;;6230442;23;20235;-92
2022/05/03 02:09:16;;;;;;;14.97;7.33;;;;;;;;;;6230586;23;20179;-90
2022/05/03 02:12:22;;;;;;;13.83;7.90;;;;;;;;;;6229106;23;20191;-89
2022/05/03 02:15:33;;;;;;;12.70;7.23;;;;;;;;;;6227775;23;20155;-91
2022/05/03 02:18:45;;;;;;;13.97;7.27;;;;;;;;;;6229714;23;20155;-91
2022/05/03 02:21:54;;;;;;;10.17;6.43;;;;;;;;;;6229031;23;20171;-91
2022/05/03 02:25:03;;;;;;;14.80;6.17;;;;;;;;;;6228216;23;20490;-89
2022/05/03 02:28:13;;;;;;;11.10;6.63;;;;;;;;;;6228415;23;20179;-89
2022/05/03 02:31:19;;;;;;;10.53;6.83;;;;;;;;;;6229309;23;20253;-89
2022/05/03 02:34:31;;;;;;;12.07;6.10;;;;;;;;;;6232808;23;20206;-91
2022/05/03 22:12:25;;;;;;;14.93;7.32;;;;;;;;;;6168674;23;20274;-90
2022/05/03 22:15:30;;;;;;;9.95;5.97;;;;;;;;;;6166546;23;20177;-89
2022/05/03 22:18:35;;;;;;;9.40;5.70;;;;;;;;;;6188213;23;20172;-91
2022/05/03 22:21:41;;;;;;;9.63;5.78;;;;;;;;;;6188061;23;20176;-91
2022/05/03 22:24:47;;;;;;;8.63;5.28;;;;;;;;;;6188016;23;20225;-92
2022/05/03 22:27:53;;;;;;;9.43;5.03;;;;;;;;;;6185926;23;20173;-90
2022/05/03 22:31:00;;;;;;;14.38;6.05;;;;;;;;;;6186752;23;20189;-89
2022/05/03 22:34:05;;;;;;;10.13;5.90;;;;;;;;;;6167748;23;20172;-90
2022/05/03 22:37:10;;;;;;;13.18;5.63;;;;;;;;;;6167853;23;20193;-89
2022/05/03 22:40:20;;;;;;;10.70;6.15;;;;;;;;;;6185145;23;20672;-91
2022/05/03 22:43:27;;;;;;;10.43;5.80;;;;;;;;;;6166580;23;20196;-89
2022/05/03 22:46:33;;;;;;;12.10;6.05;;;;;;;;;;6167174;23;20229;-91
2022/05/03 22:49:38;;;;;;;13.27;6.00;;;;;;;;;;6169600;23;20249;-90
2022/05/03 22:52:44;;;;;;;12.63;6.13;;;;;;;;;;6193426;23;20148;-89
2022/05/03 22:55:50;;;;;;;12.90;6.32;;;;;;;;;;6193344;23;20169;-89
2022/05/03 22:59:11;;;;;;;11.80;7.18;;;;;;;;;;6179326;23;20172;-90
2022/05/03 23:02:21;;;;;;;15.85;6.90;;;;;;;;;;6177296;23;20173;-89
2022/05/03 23:05:27;;;;;;;17.67;7.63;;;;;;;;;;6191664;23;20176;-88
2022/05/03 23:08:34;;;;;;;17.00;7.45;;;;;;;;;;6193948;23;20153;-91
2022/05/03 23:11:39;;;;;;;13.20;8.00;;;;;;;;;;6194077;23;20192;-90
2022/05/03 23:14:45;;;;;;;20.73;8.45;;;;;;;;;;6195111;23;20152;-90
2022/05/03 23:17:53;;;;;;;12.55;7.72;;;;;;;;;;6176951;23;20164;-89
2022/05/03 23:21:00;;;;;;;11.57;7.38;;;;;;;;;;6159755;23;20177;-90
2022/05/03 23:24:12;;;;;;;12.68;7.70;;;;;;;;;;6195120;23;20176;-90
2022/05/03 23:27:22;;;;;;;11.60;7.10;;;;;;;;;;6175963;23;20188;-90
2022/05/03 23:30:30;;;;;;;13.18;6.32;;;;;;;;;;6192525;23;20156;-90
2022/05/03 23:33:46;;;;;;;10.68;6.80;;;;;;;;;;6193960;23;20168;-92
2022/05/03 23:40:16;;;;;;;11.65;6.50;;;;;;;;;;6179488;23;20184;-90
2022/05/03 23:43:22;;;;;;;12.32;7.07;;;;;;;;;;6191934;23;20248;-89
2022/05/03 23:46:27;;;;;;;13.73;6.00;;;;;;;;;;6187474;23;20188;-89
